Time;durP1;ratioP1;P1;durP2;ratioP2;P2;SDS_P1;SDS_P2;PMS_P1;PMS_P2;Temp;Humidity;BMP_temperature;BMP_pressure;BME280_temperature;BME280_humidity;BME280_pressure;Samples;Min_cycle;Max_cycle;Signal;HPM_P1;HPM_P2
2023/10/11 00:01:29;;;;;;;5.88;1.60;;;;;;;14.31;100.00;101676.97;5093375;28;20082;-73
2023/10/11 00:03:56;;;;;;;6.07;1.90;;;;;;;14.31;100.00;101661.63;5092802;28;20568;-73
2023/10/11 00:06:24;;;;;;;4.00;1.60;;;;;;;14.70;100.00;101720.69;5093424;28;20087;-73
2023/10/11 00:08:50;;;;;;;7.93;1.52;;;;;;;14.45;100.00;101744.13;5093143;28;20115;-72
2023/10/11 00:11:20;;;;;;;4.68;1.58;;;;;;;14.66;100.00;101692.59;5092978;28;20032;-72
2023/10/11 00:13:46;;;;;;;5.85;1.60;;;;;;;14.03;100.00;101688.44;5091679;28;20032;-72
2023/10/11 00:16:13;;;;;;;4.63;1.60;;;;;;;14.80;100.00;101728.22;5092077;28;20127;-71
2023/10/11 00:18:42;;;;;;;6.18;1.60;;;;;;;14.74;100.00;101709.50;5093025;28;20040;-73
2023/10/11 00:21:15;;;;;;;5.65;1.75;;;;;;;14.64;100.00;101715.66;5093097;28;20028;-72
2023/10/11 00:23:48;;;;;;;6.32;1.70;;;;;;;14.20;100.00;101678.84;5092641;28;20490;-75
2023/10/11 00:26:14;;;;;;;6.95;1.75;;;;;;;14.47;100.00;101669.03;5091580;28;20031;-72
2023/10/11 00:28:40;;;;;;;10.55;1.50;;;;;;;14.41;100.00;101684.50;5092801;28;20093;-72
2023/10/11 00:31:13;;;;;;;6.40;1.63;;;;;;;14.63;100.00;101739.59;5092297;28;20461;-72
2023/10/11 00:33:39;;;;;;;6.38;1.65;;;;;;;14.39;100.00;101700.72;5093020;28;20115;-73
2023/10/11 00:36:05;;;;;;;6.43;1.50;;;;;;;14.49;100.00;101736.41;5091318;28;20450;-73
2023/10/11 00:38:32;;;;;;;5.10;1.70;;;;;;;14.07;100.00;101624.44;5091936;28;20219;-71
2023/10/11 00:41:06;;;;;;;3.97;1.75;;;;;;;14.79;100.00;101747.84;5092661;28;20431;-72
2023/10/11 00:43:39;;;;;;;4.28;1.50;;;;;;;13.71;100.00;101651.41;5092868;28;20054;-75
2023/10/11 00:46:09;;;;;;;3.78;1.80;;;;;;;14.62;100.00;101740.44;5092801;28;20054;-73
2023/10/11 00:48:51;;;;;;;5.20;1.70;;;;;;;14.54;100.00;101751.66;5092826;28;20035;-74
2023/10/11 00:51:18;;;;;;;5.18;1.90;;;;;;;14.55;100.00;101738.00;5092950;28;20176;-74
2023/10/11 00:53:44;;;;;;;7.20;1.85;;;;;;;14.16;100.00;101669.50;5092735;28;20023;-72
2023/10/11 00:56:10;;;;;;;6.95;2.30;;;;;;;14.42;100.00;101742.47;5092712;28;20414;-74
2023/10/11 00:58:38;;;;;;;4.40;1.83;;;;;;;14.45;100.00;101744.13;5093177;28;20445;-74
2023/10/11 01:01:04;;;;;;;7.50;2.17;;;;;;;14.42;100.00;101747.56;5092972;28;20024;-74
2023/10/11 01:03:32;;;;;;;4.03;2.00;;;;;;;14.39;100.00;101759.59;5091369;28;20470;-74
2023/10/11 01:06:00;;;;;;;6.53;1.67;;;;;;;14.16;100.00;101700.22;5092561;28;20048;-75
2023/10/11 01:08:26;;;;;;;8.57;1.90;;;;;;;14.15;100.00;101698.50;5091309;28;20024;-74
2023/10/11 01:10:52;;;;;;;5.57;1.70;;;;;;;14.51;100.00;101746.59;5092355;28;20057;-75
2023/10/11 01:13:18;;;;;;;5.18;1.52;;;;;;;13.88;100.00;101644.31;5092304;28;20024;-74
2023/10/11 01:15:44;;;;;;;5.82;1.70;;;;;;;14.46;100.00;101753.53;5092274;28;20024;-75
2023/10/11 01:18:12;;;;;;;6.18;1.63;;;;;;;14.46;100.00;101743.28;5091016;28;20034;-74
2023/10/11 01:20:40;;;;;;;10.13;1.90;;;;;;;14.55;100.00;101743.13;5092243;28;20034;-73
2023/10/11 01:23:06;;;;;;;5.22;1.55;;;;;;;14.39;100.00;101749.34;5091730;28;20031;-74
2023/10/11 01:25:33;;;;;;;5.43;1.23;;;;;;;14.25;100.00;101707.72;5092009;28;20039;-75
2023/10/11 01:27:59;;;;;;;9.27;1.80;;;;;;;14.34;100.00;101743.47;5092227;28;20066;-75
2023/10/11 01:30:27;;;;;;;5.13;1.63;;;;;;;14.26;100.00;101696.66;5094639;28;20032;-77
2023/10/11 01:32:54;;;;;;;4.85;1.40;;;;;;;14.21;100.00;101689.03;5096088;28;20482;-74
2023/10/11 01:35:20;;;;;;;6.72;1.55;;;;;;;14.28;100.00;101697.50;5092234;28;20089;-74
2023/10/11 01:37:49;;;;;;;7.05;1.30;;;;;;;14.05;100.00;101677.34;5091774;28;20028;-74
2023/10/11 01:40:20;;;;;;;5.60;1.90;;;;;;;14.24;100.00;101699.22;5093933;27;20513;-74
2023/10/11 01:42:50;;;;;;;4.80;1.48;;;;;;;14.59;100.00;101765.25;5092212;28;20035;-74
2023/10/11 01:45:19;;;;;;;4.35;1.50;;;;;;;14.33;100.00;101714.47;5092059;28;20074;-74
2023/10/11 01:47:46;;;;;;;5.40;1.50;;;;;;;14.32;100.00;101706.81;5092439;28;20031;-77
2023/10/11 01:50:15;;;;;;;4.68;1.52;;;;;;;14.22;100.00;101682.22;5092522;28;20035;-75
2023/10/11 01:52:42;;;;;;;7.07;1.65;;;;;;;14.76;100.00;101773.50;5092041;28;20088;-75
2023/10/11 01:55:11;;;;;;;3.67;1.45;;;;;;;14.59;100.00;101767.81;5090297;28;20494;-75
2023/10/11 01:57:39;;;;;;;6.35;1.42;;;;;;;14.28;100.00;101766.59;5091734;28;20024;-74
2023/10/11 02:00:13;;;;;;;7.10;1.60;;;;;;;14.58;100.00;101758.41;5091931;28;20024;-73
2023/10/11 02:02:52;;;;;;;3.20;1.30;;;;;;;14.73;100.00;101789.78;5091404;28;20046;-76
2023/10/11 02:05:21;;;;;;;6.28;1.75;;;;;;;14.69;100.00;101780.44;5091301;28;20051;-75
2023/10/11 02:07:47;;;;;;;6.10;1.48;;;;;;;14.28;100.00;101708.56;5091426;28;20028;-75
2023/10/11 02:10:12;;;;;;;5.78;1.63;;;;;;;14.19;100.00;101805.88;5091275;28;20513;-75
2023/10/11 02:12:45;;;;;;;13.68;4.72;;;;;;;14.30;100.00;101793.81;5091779;28;20113;-77
2023/10/11 02:15:27;;;;;;;8.23;2.70;;;;;;;14.50;100.00;101806.31;5092293;28;20032;-75
2023/10/11 02:17:54;;;;;;;4.70;1.70;;;;;;;14.21;100.00;101734.22;5090723;28;20028;-75
2023/10/11 02:20:22;;;;;;;4.70;1.40;;;;;;;14.56;100.00;101758.44;5091175;28;20036;-75
2023/10/11 02:22:51;;;;;;;5.97;1.70;;;;;;;14.59;100.00;101785.72;5091941;28;20132;-74
2023/10/11 02:25:18;;;;;;;5.00;1.60;;;;;;;14.16;100.00;101724.09;5092252;28;20031;-75
2023/10/11 02:27:44;;;;;;;8.25;1.67;;;;;;;14.42;100.00;101742.47;5091093;28;20031;-75
2023/10/11 02:30:13;;;;;;;7.07;1.58;;;;;;;14.06;100.00;101724.22;5091566;28;20036;-75
2023/10/11 02:32:42;;;;;;;7.55;1.60;;;;;;;14.39;100.00;101763.00;5091731;28;20534;-75
2023/10/11 02:35:13;;;;;;;3.50;1.50;;;;;;;14.65;100.00;101780.50;5091063;28;20032;-74
2023/10/11 02:37:39;;;;;;;5.20;1.65;;;;;;;14.41;100.00;101750.16;5091239;28;20028;-75
2023/10/11 02:40:08;;;;;;;7.95;1.60;;;;;;;14.42;100.00;101780.84;5091336;28;20174;-75
2023/10/11 02:42:37;;;;;;;5.07;1.65;;;;;;;14.19;100.00;101752.16;5094677;28;20031;-76
2023/10/11 02:45:08;;;;;;;5.43;1.92;;;;;;;14.39;100.00;101813.31;5110518;28;20031;-75
2023/10/11 02:47:36;;;;;;;6.80;1.67;;;;;;;14.58;100.00;101805.34;5104481;28;20032;-74
2023/10/11 02:50:07;;;;;;;6.28;1.65;;;;;;;14.27;100.00;101746.94;5091271;28;20024;-76
2023/10/11 02:52:36;;;;;;;7.93;1.80;;;;;;;14.41;100.00;101780.88;5102618;28;20035;-76
2023/10/11 02:55:17;;;;;;;4.32;1.73;;;;;;;14.41;100.00;101761.25;5111669;28;20036;-75
2023/10/11 02:57:43;;;;;;;6.07;1.70;;;;;;;14.54;100.00;101815.66;5111375;28;20055;-76
2023/10/11 03:00:24;;;;;;;10.18;1.58;;;;;;;14.19;100.00;101748.75;5111381;28;20123;-75
2023/10/11 03:02:57;;;;;;;6.95;1.80;;;;;;;14.30;100.00;101749.50;5110270;28;20024;-75
2023/10/11 03:05:27;;;;;;;3.42;1.88;;;;;;;14.32;100.00;101742.66;5111055;28;20047;-75
2023/10/11 03:08:15;;;;;;;6.30;2.00;;;;;;;14.51;100.00;101816.56;5108982;28;20038;-72
2023/10/11 03:10:45;;;;;;;6.72;1.85;;;;;;;14.00;100.00;101750.75;5090272;28;20111;-74
2023/10/11 03:13:19;;;;;;;4.75;2.13;;;;;;;14.64;100.00;101807.81;5091311;28;20084;-75
2023/10/11 03:15:47;;;;;;;7.88;2.10;;;;;;;14.51;100.00;101808.88;5093129;28;20032;-75
2023/10/11 03:18:13;;;;;;;5.57;2.00;;;;;;;14.06;100.00;101742.13;5101539;27;20023;-76
2023/10/11 03:20:40;;;;;;;9.13;2.50;;;;;;;14.60;100.00;101813.00;5115093;28;20028;-76
2023/10/11 03:23:10;;;;;;;6.32;2.50;;;;;;;14.38;100.00;101750.22;5113984;28;20051;-76
2023/10/11 03:25:38;;;;;;;6.88;2.35;;;;;;;14.51;100.00;101774.75;5114810;28;20088;-77
2023/10/11 03:28:05;;;;;;;7.38;2.63;;;;;;;14.57;100.00;101807.94;5108145;28;20490;-79
2023/10/11 03:30:35;;;;;;;4.65;2.03;;;;;;;14.82;100.00;101806.69;5115046;28;20046;-75
2023/10/11 03:33:02;;;;;;;11.38;2.40;;;;;;;14.55;100.00;101825.03;5113665;28;20037;-77
2023/10/11 03:35:31;;;;;;;8.02;2.50;;;;;;;14.34;100.00;101748.59;5113396;28;20085;-76
2023/10/11 03:37:59;;;;;;;7.95;2.88;;;;;;;14.27;100.00;101757.16;5112784;28;20039;-76
2023/10/11 03:40:50;;;;;;;8.50;3.10;;;;;;;14.82;100.00;101767.41;5114548;27;20168;-76
2023/10/11 03:43:19;;;;;;;12.48;3.10;;;;;;;14.45;100.00;101800.44;5114252;27;20030;-75
2023/10/11 03:45:49;;;;;;;9.48;2.67;;;;;;;14.47;100.00;101827.72;5096725;28;20024;-74
2023/10/11 03:48:20;;;;;;;8.75;2.67;;;;;;;14.39;100.00;101816.75;5094151;28;20040;-79
2023/10/11 03:50:51;;;;;;;5.60;2.83;;;;;;;14.36;100.00;101815.94;5093429;28;20027;-77
2023/10/11 03:53:17;;;;;;;6.07;2.28;;;;;;;14.28;100.00;101779.38;5094516;28;20026;-82
2023/10/11 03:55:49;;;;;;;4.85;2.25;;;;;;;14.52;100.00;101836.16;5094675;28;20032;-80
2023/10/11 04:03:56;;;;;;;8.02;2.30;;;;;;;14.15;100.00;101744.56;5101603;28;20394;-75
2023/10/11 04:06:22;;;;;;;6.32;2.08;;;;;;;14.15;100.00;101783.78;5112177;28;20473;-76
2023/10/11 04:08:56;;;;;;;4.65;1.75;;;;;;;14.39;100.00;101824.41;5113067;28;20452;-72
2023/10/11 04:11:37;;;;;;;10.02;1.90;;;;;;;14.21;100.00;101762.38;5112064;28;20028;-75
2023/10/11 04:14:03;;;;;;;7.68;2.10;;;;;;;14.64;100.00;101820.63;5094267;28;20039;-73
2023/10/11 04:16:29;;;;;;;4.50;1.77;;;;;;;14.49;100.00;101813.19;5107878;28;20028;-74
2023/10/11 04:18:54;;;;;;;8.35;1.90;;;;;;;14.37;100.00;101776.66;5111501;27;20024;-75
2023/10/11 04:23:54;;;;;;;4.63;2.10;;;;;;;14.44;100.00;101840.53;5092677;28;20058;-75
2023/10/11 04:26:26;;;;;;;7.20;1.90;;;;;;;14.17;100.00;101776.06;5092827;28;20118;-73
2023/10/11 04:28:52;;;;;;;6.50;2.00;;;;;;;14.40;100.00;101830.38;5092077;28;20032;-74
2023/10/11 04:31:28;;;;;;;10.27;2.13;;;;;;;14.51;100.00;101854.09;5090806;28;20545;-73
2023/10/11 04:33:54;;;;;;;4.43;1.70;;;;;;;13.94;100.00;101774.66;5125458;27;20531;-75
2023/10/11 04:36:20;;;;;;;9.65;1.90;;;;;;;14.41;100.00;101852.53;5092927;28;20470;-74
2023/10/11 04:38:52;;;;;;;5.85;2.10;;;;;;;14.50;100.00;101831.91;5091117;28;20073;-73
2023/10/11 04:41:19;;;;;;;4.28;2.08;;;;;;;14.76;100.00;101835.81;5091236;28;20034;-73
2023/10/11 04:44:04;;;;;;;6.10;2.22;;;;;;;14.72;100.00;101854.66;5090960;28;20122;-73
2023/10/11 04:46:30;;;;;;;10.43;2.33;;;;;;;14.19;100.00;101805.88;5092173;28;20490;-74
2023/10/11 04:49:09;;;;;;;6.63;2.20;;;;;;;14.54;100.00;101856.59;5092019;28;20094;-73
2023/10/11 04:51:39;;;;;;;40.38;20.45;;;;;;;14.60;100.00;101853.97;5092474;28;20024;-73
2023/10/11 04:54:13;;;;;;;33.20;13.77;;;;;;;14.17;100.00;101789.72;5091704;28;20024;-73
2023/10/11 05:04:16;;;;;;;13.98;4.03;;;;;;;14.85;100.00;101868.13;5092254;28;20474;-74
2023/10/11 05:06:43;;;;;;;12.55;3.55;;;;;;;14.16;100.00;101799.97;5093377;28;20116;-74
2023/10/11 05:09:56;;;;;;;7.40;3.15;;;;;;;13.91;100.00;101759.38;5091790;28;20417;-73
2023/10/11 05:12:07;;;;;;;8.65;3.45;;;;;;;14.72;100.00;101869.16;5091082;28;20525;-74
2023/10/11 05:19:45;;;;;;;12.25;3.53;;;;;;;14.52;100.00;101817.38;5092294;28;20028;-74
2023/10/11 05:22:29;;;;;;;7.75;2.70;;;;;;;14.70;100.00;101871.75;5092355;28;20039;-75
2023/10/11 05:32:49;;;;;;;6.78;2.70;;;;;;;14.51;100.00;101834.50;5092515;28;20034;-75
2023/10/11 05:51:27;;;;;;;9.25;3.30;;;;;;;14.94;100.00;101898.72;5092308;28;20092;-73
2023/10/11 05:53:53;;;;;;;8.52;3.13;;;;;;;14.65;100.00;101847.94;5091882;28;20032;-74
2023/10/11 05:56:22;;;;;;;9.48;2.85;;;;;;;15.01;100.00;101910.56;5091487;28;20024;-75
2023/10/11 05:58:52;;;;;;;7.55;2.80;;;;;;;14.77;100.00;101831.53;5091659;28;20111;-76
2023/10/11 06:01:21;;;;;;;12.25;4.10;;;;;;;14.82;100.00;101850.22;5091799;28;20043;-75
2023/10/11 06:03:50;;;;;;;12.23;3.95;;;;;;;15.15;100.00;101898.38;5091160;28;20114;-76
2023/10/11 06:06:23;;;;;;;15.77;3.15;;;;;;;15.22;100.00;101910.22;5092470;28;20415;-75
2023/10/11 06:08:50;;;;;;;13.73;4.07;;;;;;;15.22;100.00;101910.22;5090861;28;20415;-75
2023/10/11 06:11:16;;;;;;;15.82;4.30;;;;;;;15.26;100.00;101927.25;5092236;28;20043;-74
2023/10/11 06:13:43;;;;;;;12.27;4.22;;;;;;;15.13;100.00;101910.34;5092603;28;20088;-76
2023/10/11 06:16:13;;;;;;;12.35;3.75;;;;;;;14.90;100.00;101865.47;5091174;28;20024;-74
2023/10/11 06:18:39;;;;;;;17.60;6.32;;;;;;;15.25;100.00;101935.78;5090886;28;20071;-75
2023/10/11 06:21:18;;;;;;;22.30;6.30;;;;;;;15.32;100.00;101934.00;5091740;28;20501;-75
2023/10/11 06:23:44;;;;;;;13.52;4.75;;;;;;;15.21;100.00;101887.19;5091260;28;20030;-74
2023/10/11 06:26:28;;;;;;;16.85;4.60;;;;;;;15.13;100.00;101871.91;5091810;28;20028;-75
2023/10/11 06:29:03;;;;;;;16.30;4.35;;;;;;;15.48;100.00;101922.66;5091641;28;20036;-75
2023/10/11 06:31:44;;;;;;;19.73;4.40;;;;;;;15.17;100.00;101868.44;5090416;28;20073;-75
2023/10/11 06:34:45;;;;;;;18.80;4.30;;;;;;;15.46;100.00;101894.47;5088233;28;20470;-75
2023/10/11 06:37:02;;;;;;;15.50;4.35;;;;;;;15.48;100.00;101932.91;5090769;28;20040;-75
2023/10/11 06:44:49;;;;;;;24.55;8.40;;;;;;;15.25;100.00;101896.53;5091135;28;20032;-75
2023/10/11 06:47:19;;;;;;;32.33;8.25;;;;;;;16.02;100.00;101937.06;5092160;28;20066;-73
2023/10/11 06:49:49;;;;;;;23.08;6.40;;;;;;;15.73;100.00;101882.88;5095105;28;20119;-75
2023/10/11 06:52:17;;;;;;;20.75;7.43;;;;;;;15.97;100.00;101927.75;5096119;28;20024;-75
2023/10/11 06:55:00;;;;;;;22.02;8.07;;;;;;;15.96;100.00;101944.03;5094017;28;20085;-75
2023/10/11 06:57:26;;;;;;;24.00;7.22;;;;;;;15.60;100.00;101884.84;5095637;28;20406;-75
2023/10/11 06:59:56;;;;;;;22.60;7.32;;;;;;;15.63;100.00;101888.22;5094343;28;20035;-73
2023/10/11 07:02:32;;;;;;;20.37;7.07;;;;;;;15.91;100.00;101943.25;5094964;28;20032;-74
2023/10/11 07:05:06;;;;;;;19.63;6.75;;;;;;;16.01;100.00;101950.75;5094834;28;20044;-75
2023/10/11 07:07:34;;;;;;;26.02;7.03;;;;;;;16.07;100.00;101893.34;5098323;28;20118;-75
2023/10/11 07:10:05;;;;;;;20.83;7.20;;;;;;;16.20;100.00;101946.97;5114808;27;20027;-75
2023/10/11 07:12:39;;;;;;;18.05;6.53;;;;;;;16.27;100.00;101937.44;5114178;28;20303;-74
2023/10/11 07:15:13;;;;;;;21.23;6.72;;;;;;;16.52;100.00;101932.69;5115285;28;20031;-75
2023/10/11 07:17:38;;;;;;;19.83;6.25;;;;;;;16.37;100.00;101913.25;5114194;28;20027;-75
2023/10/11 07:20:44;;;;;;;13.60;4.15;;;;;;;16.33;100.00;101865.44;5114659;28;20417;-75
2023/10/11 07:22:54;;;;;;;8.57;3.10;;;;;;;16.67;100.00;101934.91;5114349;28;20031;-75
2023/10/11 07:25:36;;;;;;;10.60;3.13;;;;;;;16.60;100.00;101871.72;5114052;28;20031;-74
2023/10/11 07:28:03;;;;;;;7.32;2.63;;;;;;;16.63;100.00;101857.09;5115320;27;20072;-76
2023/10/11 07:30:37;;;;;;;10.02;2.50;;;;;;;17.09;100.00;101865.38;5114702;28;20142;-76
2023/10/11 07:33:05;;;;;;;11.52;2.47;;;;;;;16.83;100.00;101864.34;5115047;27;20047;-76
2023/10/11 07:35:33;;;;;;;11.93;2.42;;;;;;;16.38;100.00;101841.34;5114048;28;20031;-76
2023/10/11 07:38:00;;;;;;;6.13;2.28;;;;;;;16.80;100.00;101887.50;5114872;28;20443;-76
2023/10/11 07:40:34;;;;;;;13.45;2.85;;;;;;;17.04;100.00;101943.50;5114606;28;20030;-75
2023/10/11 07:43:00;;;;;;;10.05;2.40;;;;;;;16.61;100.00;101894.81;5114123;28;20032;-75
2023/10/11 07:45:26;;;;;;;11.85;2.60;;;;;;;17.00;100.00;101942.72;5113120;28;20474;-75
2023/10/11 07:47:52;;;;;;;6.82;2.38;;;;;;;17.20;100.00;101960.25;5113829;28;20034;-75
2023/10/11 07:50:24;;;;;;;7.00;2.38;;;;;;;17.47;100.00;101939.00;5114317;27;20031;-75
2023/10/11 07:52:50;;;;;;;;;;;;;;;17.52;100.00;101955.22;5114875;28;20093;-75
2023/10/11 07:55:17;;;;;;;10.82;3.92;;;;;;;17.51;100.00;101950.94;5114380;28;19954;-75
2023/10/11 07:57:46;;;;;;;5.57;2.85;;;;;;;17.43;100.00;101892.84;5113333;28;20122;-76
2023/10/11 08:00:16;;;;;;;7.10;2.40;;;;;;;17.60;100.00;101952.47;5112840;28;20023;-74
2023/10/11 08:02:43;;;;;;;10.32;2.42;;;;;;;17.39;100.00;101891.25;5112937;28;20042;-77
2023/10/11 08:05:12;;;;;;;9.77;2.42;;;;;;;17.42;100.00;101966.59;5113180;28;20048;-76
2023/10/11 08:07:40;;;;;;;10.20;2.38;;;;;;;17.92;100.00;101953.34;5114473;28;20028;-75
2023/10/11 08:12:51;;;;;;;13.18;4.57;;;;;;;17.92;100.00;101963.63;5113967;28;20035;-74
2023/10/11 08:15:21;;;;;;;5.30;2.30;;;;;;;17.95;100.00;101882.88;5112173;28;20024;-74
2023/10/11 08:17:47;;;;;;;5.55;1.70;;;;;;;18.49;100.00;101947.47;5113597;28;20083;-75
2023/10/11 08:20:15;;;;;;;7.95;2.97;;;;;;;19.08;100.00;101931.06;5114177;28;20040;-75
2023/10/11 08:22:41;;;;;;;6.80;1.80;;;;;;;17.84;100.00;101926.97;5112674;28;20047;-74
2023/10/11 08:25:12;;;;;;;8.82;2.42;;;;;;;17.83;100.00;101896.94;5113578;27;20494;-75
2023/10/11 08:27:38;;;;;;;4.07;1.65;;;;;;;18.34;100.00;101955.63;5112029;28;20526;-75
2023/10/11 08:30:17;;;;;;;4.07;1.48;;;;;;;17.90;100.00;101949.09;5112818;28;20107;-74
2023/10/11 08:32:43;;;;;;;6.95;1.75;;;;;;;18.39;100.00;101967.47;5112329;28;20070;-74
2023/10/11 08:35:16;;;;;;;7.63;2.08;;;;;;;18.30;100.00;101965.19;5113061;28;20032;-75
2023/10/11 08:37:42;;;;;;;6.80;1.90;;;;;;;18.36;100.00;101954.66;5112522;28;20509;-75
2023/10/11 08:40:23;;;;;;;6.43;2.63;;;;;;;17.99;100.00;101880.19;5114609;28;20028;-75
2023/10/11 08:42:50;;;;;;;5.07;1.90;;;;;;;17.73;100.00;101892.94;5122250;28;20027;-74
2023/10/11 08:45:26;;;;;;;5.07;2.00;;;;;;;18.19;100.00;101949.16;5115966;28;20485;-75
2023/10/11 08:47:52;;;;;;;4.72;1.92;;;;;;;18.02;100.00;101874.13;5112930;28;20032;-74
2023/10/11 08:50:18;;;;;;;5.32;2.10;;;;;;;18.83;100.00;101845.06;5112675;27;20069;-74
2023/10/11 08:52:44;;;;;;;7.75;2.00;;;;;;;19.52;100.00;101915.00;5113214;28;20023;-74
2023/10/11 08:55:12;;;;;;;8.40;1.92;;;;;;;19.73;100.00;101913.41;5111356;28;20032;-73
2023/10/11 08:57:38;;;;;;;5.78;1.60;;;;;;;19.37;100.00;101920.66;5112989;28;20027;-74
2023/10/11 09:00:17;;;;;;;6.78;2.03;;;;;;;19.78;100.00;101859.91;5112497;28;20035;-74
2023/10/11 09:02:48;;;;;;;8.98;2.30;;;;;;;20.95;100.00;101867.47;5112324;28;20028;-73
2023/10/11 09:05:29;;;;;;;5.45;1.85;;;;;;;20.45;100.00;101894.44;5112324;28;20746;-73
2023/10/11 09:07:55;;;;;;;4.30;1.90;;;;;;;19.37;100.00;101850.19;5112496;28;20106;-73
2023/10/11 09:10:23;;;;;;;4.88;1.65;;;;;;;20.18;100.00;101901.47;5111915;28;20114;-74
2023/10/11 09:12:49;;;;;;;4.63;1.92;;;;;;;19.47;100.00;101854.94;5112116;28;20049;-74
2023/10/11 09:15:16;;;;;;;5.50;1.73;;;;;;;19.80;100.00;101887.34;5111717;27;20031;-75
2023/10/11 09:17:41;;;;;;;6.40;1.80;;;;;;;19.38;100.00;101850.13;5111288;28;20039;-75
2023/10/11 09:20:23;;;;;;;3.88;1.70;;;;;;;19.86;100.00;101879.38;5112689;28;20028;-75
2023/10/11 09:22:53;;;;;;;5.97;1.65;;;;;;;20.43;100.00;101847.13;5112821;28;20033;-75
2023/10/11 09:25:23;;;;;;;7.72;2.17;;;;;;;19.77;100.00;101897.78;5111592;28;20027;-74
2023/10/11 09:27:49;;;;;;;10.55;2.00;;;;;;;19.70;100.00;101826.63;5110719;28;20027;-78
2023/10/11 09:30:19;;;;;;;6.57;2.60;;;;;;;20.41;100.00;101875.63;5110646;28;20409;-74
2023/10/11 09:32:49;;;;;;;9.93;2.20;;;;;;;19.96;100.00;101825.66;5111457;28;20020;-74
2023/10/11 09:35:28;;;;;;;7.95;3.17;;;;;;;20.21;100.00;101834.19;5112297;28;20039;-76
2023/10/11 09:37:58;;;;;;;6.18;2.50;;;;;;;20.41;100.00;101787.75;5108786;28;20023;-74
2023/10/11 09:40:31;;;;;;;6.53;2.15;;;;;;;20.63;100.00;101824.78;5111829;28;20024;-72
2023/10/11 09:43:00;;;;;;;9.75;2.30;;;;;;;20.88;100.00;101854.84;5112453;28;20526;-76
2023/10/11 09:45:29;;;;;;;5.60;2.30;;;;;;;21.66;100.00;101817.84;5110827;28;20520;-75
2023/10/11 09:47:56;;;;;;;4.38;1.65;;;;;;;20.69;100.00;101840.06;5111565;27;20023;-71
2023/10/11 09:50:26;;;;;;;9.80;2.08;;;;;;;20.99;100.00;101777.63;5110116;28;20248;-71
2023/10/11 09:52:53;;;;;;;7.35;1.73;;;;;;;21.68;100.00;101821.22;5111051;28;20122;-75
2023/10/11 09:55:31;;;;;;;5.43;1.88;;;;;;;21.75;100.00;101814.84;5111662;28;20454;-73
2023/10/11 09:58:18;;;;;;;6.90;1.98;;;;;;;21.32;100.00;101812.44;5110599;28;20045;-74
2023/10/11 10:00:54;;;;;;;6.18;1.80;;;;;;;21.06;100.00;101828.22;5111879;28;20031;-74
2023/10/11 10:03:24;;;;;;;6.28;1.63;;;;;;;20.39;100.00;101804.22;5109905;28;20098;-74
2023/10/11 10:06:07;;;;;;;7.60;1.88;;;;;;;21.05;100.00;101751.53;5112229;28;20050;-74
2023/10/11 10:08:33;;;;;;;5.72;2.33;;;;;;;21.40;100.00;101805.19;5110377;28;20521;-74
2023/10/11 10:10:58;;;;;;;6.03;1.90;;;;;;;22.37;100.00;101792.09;5111807;28;20035;-74
2023/10/11 10:13:25;;;;;;;7.20;2.63;;;;;;;21.03;100.00;101811.13;5111567;28;20035;-73
2023/10/11 10:15:52;;;;;;;4.78;2.00;;;;;;;21.91;100.00;101813.28;5110178;28;20031;-74
2023/10/11 10:18:19;;;;;;;5.55;1.95;;;;;;;21.39;100.00;101803.53;5110166;28;20027;-73
2023/10/11 10:21:06;;;;;;;6.43;1.95;;;;;;;21.14;100.00;101787.34;5109777;28;20031;-74
2023/10/11 10:23:38;;;;;;;3.97;1.80;;;;;;;22.04;100.00;101788.50;5114140;28;20047;-73
2023/10/11 10:26:03;;;;;;;4.88;2.30;;;;;;;21.70;100.00;101790.91;5113768;28;20059;-73
2023/10/11 10:28:45;;;;;;;8.77;2.28;;;;;;;21.39;100.00;101808.72;5115111;28;20066;-72
2023/10/11 10:31:16;;;;;;;;;;;;;;;21.70;100.00;101790.06;5114705;28;20374;-73
2023/10/11 10:34:05;;;;;;;6.15;2.20;;;;;;;22.31;100.00;101769.06;5114052;28;19915;-73
2023/10/11 10:36:31;;;;;;;6.10;2.03;;;;;;;21.80;100.00;101732.59;5111421;28;20505;-72
2023/10/11 10:39:30;;;;;;;7.35;2.17;;;;;;;22.57;100.00;101765.22;5115205;28;20409;-72
2023/10/11 10:42:15;;;;;;;5.05;2.30;;;;;;;22.38;100.00;101754.06;5115113;27;20032;-73
2023/10/11 10:44:53;;;;;;;9.02;2.25;;;;;;;21.91;100.00;101770.97;5115154;28;20038;-73
2023/10/11 10:47:25;;;;;;;9.38;2.38;;;;;;;22.62;100.00;101710.56;5113937;28;20023;-73
2023/10/11 10:49:53;;;;;;;2.95;2.20;;;;;;;23.06;100.00;101746.28;5114904;28;20027;-72
2023/10/11 10:52:34;;;;;;;4.72;1.92;;;;;;;22.06;100.00;101727.09;5113671;28;20028;-71
2023/10/11 10:55:05;;;;;;;9.98;2.17;;;;;;;21.87;100.00;101699.53;5113559;28;20118;-72
2023/10/11 10:57:38;;;;;;;10.50;2.22;;;;;;;22.70;100.00;101693.66;5113561;28;20070;-72
2023/10/11 11:00:07;;;;;;;4.65;2.15;;;;;;;22.50;100.00;101635.94;5114439;27;20031;-72
2023/10/11 11:02:35;;;;;;;4.03;2.03;;;;;;;23.09;100.00;101706.38;5114708;28;20058;-72
2023/10/11 11:05:01;;;;;;;5.93;2.53;;;;;;;22.64;100.00;101631.72;5114464;27;20104;-72
2023/10/11 11:07:26;;;;;;;4.15;2.15;;;;;;;22.84;100.00;101719.75;5113586;28;20031;-73
2023/10/11 11:09:54;;;;;;;9.60;2.33;;;;;;;22.30;100.00;101632.56;5113085;28;20394;-72
2023/10/11 11:12:27;;;;;;;7.20;2.53;;;;;;;23.16;100.00;101699.91;5113265;28;20028;-75
2023/10/11 11:14:54;;;;;;;6.18;2.38;;;;;;;21.91;100.00;101720.00;5114346;28;20032;-72
2023/10/11 11:17:20;;;;;;;6.63;2.13;;;;;;;22.41;100.00;101697.69;5114308;28;20541;-72
2023/10/11 11:20:27;;;;;;;8.20;2.50;;;;;;;23.46;100.00;101703.53;5114382;28;20116;-72
2023/10/11 11:22:53;;;;;;;9.60;2.75;;;;;;;22.72;100.00;101707.41;5113511;28;20458;-73
2023/10/11 11:25:27;;;;;;;5.22;2.20;;;;;;;22.49;100.00;101712.03;5114432;28;20024;-72
2023/10/11 11:28:04;;;;;;;8.60;2.45;;;;;;;22.19;100.00;101720.38;5114099;28;20054;-75
2023/10/11 11:30:33;;;;;;;4.55;2.70;;;;;;;22.15;100.00;101646.28;5114365;28;20032;-73
2023/10/11 11:33:00;;;;;;;4.90;2.38;;;;;;;22.92;100.00;101686.47;5113860;28;20054;-72
2023/10/11 11:35:29;;;;;;;3.47;2.13;;;;;;;22.59;100.00;101682.16;5112930;28;20035;-73
2023/10/11 11:38:02;;;;;;;5.68;2.28;;;;;;;22.77;100.00;101695.06;5112685;28;20035;-73
2023/10/11 11:40:47;;;;;;;8.02;2.33;;;;;;;22.26;100.00;101667.31;5114189;28;20035;-73
2023/10/11 11:43:17;;;;;;;5.30;2.40;;;;;;;23.06;100.00;101665.81;5112659;28;20054;-72
2023/10/11 11:45:45;;;;;;;5.80;2.22;;;;;;;22.58;100.00;101623.44;5113673;28;20035;-75
2023/10/11 11:48:11;;;;;;;5.93;2.28;;;;;;;23.01;100.00;101661.81;5114083;28;20038;-72
2023/10/11 11:50:38;;;;;;;4.65;2.17;;;;;;;23.61;100.00;101681.09;5112976;28;20126;-74
2023/10/11 11:53:05;;;;;;;7.20;2.42;;;;;;;22.45;100.00;101700.97;5112625;28;20422;-73
2023/10/11 11:55:32;;;;;;;9.75;2.50;;;;;;;22.56;100.00;101578.56;5112444;28;20032;-73
2023/10/11 11:57:58;;;;;;;5.88;2.13;;;;;;;22.52;100.00;101627.16;5112595;28;20035;-74
2023/10/11 12:02:51;;;;;;;9.38;2.58;;;;;;;22.37;100.00;101579.50;5113810;27;20030;-74
2023/10/11 12:05:17;;;;;;;7.22;2.42;;;;;;;22.54;100.00;101686.72;5112090;27;20039;-72
2023/10/11 12:07:43;;;;;;;8.45;2.38;;;;;;;23.51;100.00;101665.16;5113739;28;20032;-74
2023/10/11 12:10:28;;;;;;;7.43;2.35;;;;;;;23.54;100.00;101652.00;5112494;28;20440;-73
2023/10/11 12:12:55;;;;;;;7.00;2.35;;;;;;;23.27;100.00;101667.28;5112805;28;20028;-73
2023/10/11 12:15:21;;;;;;;9.18;2.50;;;;;;;23.13;100.00;101617.03;5112788;28;20508;-73
2023/10/11 12:17:47;;;;;;;8.68;2.40;;;;;;;23.51;100.00;101635.75;5114640;28;20032;-73
2023/10/11 12:20:15;;;;;;;6.47;2.55;;;;;;;22.49;100.00;101676.56;5114392;28;20026;-73
2023/10/11 12:22:44;;;;;;;7.70;2.20;;;;;;;23.22;100.00;101591.41;5113554;28;20032;-75
2023/10/11 12:25:11;;;;;;;6.72;2.38;;;;;;;23.53;100.00;101582.78;5111941;27;20034;-74
2023/10/11 12:27:40;;;;;;;8.00;2.30;;;;;;;23.21;100.00;101657.22;5113586;28;20041;-73